Time;durP1;ratioP1;P1;durP2;ratioP2;P2;SDS_P1;SDS_P2;PMS_P1;PMS_P2;Temp;Humidity;BMP_temperature;BMP_pressure;BME280_temperature;BME280_humidity;BME280_pressure;Samples;Min_cycle;Max_cycle;Signal;HPM_P1;HPM_P2
2021/11/25 00:01:15;;;;;;;85.83;39.97;;;7.60;99.90;;;;;;5065927;28;20160;-65
2021/11/25 00:03:40;;;;;;;84.17;37.53;;;7.60;99.90;;;;;;5066229;28;20165;-65
2021/11/25 00:06:06;;;;;;;91.90;39.43;;;7.60;99.90;;;;;;5064859;28;20172;-65
2021/11/25 00:08:32;;;;;;;84.30;39.47;;;7.60;99.90;;;;;;5066413;28;20173;-65
2021/11/25 00:10:58;;;;;;;84.07;38.63;;;8.10;99.90;;;;;;5065801;28;20593;-66
2021/11/25 00:13:23;;;;;;;90.03;40.47;;;8.10;99.90;;;;;;5066298;28;20165;-65
2021/11/25 00:15:49;;;;;;;88.17;38.87;;;8.00;99.90;;;;;;5065906;28;20217;-65
2021/11/25 00:18:18;;;;;;;92.93;39.90;;;7.90;99.90;;;;;;5066261;28;20228;-65
2021/11/25 00:20:44;;;;;;;89.93;41.70;;;7.70;99.90;;;;;;5065772;28;20177;-65
2021/11/25 00:23:09;;;;;;;92.77;39.23;;;7.60;99.90;;;;;;5066579;28;20194;-65
2021/11/25 00:25:35;;;;;;;86.67;40.97;;;7.60;99.90;;;;;;5065859;28;20175;-65
2021/11/25 00:28:01;;;;;;;89.07;42.10;;;7.90;99.90;;;;;;5066210;28;20168;-65
2021/11/25 00:30:27;;;;;;;87.33;39.07;;;8.20;99.90;;;;;;5065783;28;20235;-65
2021/11/25 00:32:52;;;;;;;74.90;37.10;;;8.00;99.90;;;;;;5066099;28;20680;-65
2021/11/25 00:35:18;;;;;;;70.87;35.00;;;7.70;99.90;;;;;;5065348;28;20180;-65
2021/11/25 00:37:45;;;;;;;67.70;32.97;;;7.50;99.90;;;;;;5066050;28;20169;-65
2021/11/25 00:40:13;;;;;;;73.37;34.27;;;7.40;99.90;;;;;;5065947;28;20176;-66
2021/11/25 00:42:39;;;;;;;80.53;34.70;;;7.30;99.90;;;;;;5065988;28;20632;-66
2021/11/25 00:45:06;;;;;;;69.43;33.73;;;7.40;99.90;;;;;;5065393;28;20235;-65
2021/11/25 00:47:32;;;;;;;77.10;34.87;;;7.60;99.90;;;;;;5065816;28;20161;-65
2021/11/25 00:49:57;;;;;;;73.00;35.87;;;7.80;99.90;;;;;;5065226;28;20176;-65
2021/11/25 00:52:25;;;;;;;81.13;35.70;;;7.90;99.90;;;;;;5065893;28;20211;-65
2021/11/25 00:54:51;;;;;;;81.23;36.30;;;7.80;99.90;;;;;;5065421;28;20601;-65
2021/11/25 00:57:16;;;;;;;72.93;35.07;;;7.80;99.90;;;;;;5065934;28;20164;-65
2021/11/25 00:59:43;;;;;;;82.80;35.67;;;7.70;99.90;;;;;;5065784;28;20175;-65
2021/11/25 01:02:09;;;;;;;79.07;35.93;;;7.60;99.90;;;;;;5065894;28;20252;-65
2021/11/25 01:04:34;;;;;;;80.03;35.43;;;7.60;99.90;;;;;;5065148;28;20222;-67
2021/11/25 01:07:00;;;;;;;77.13;33.87;;;7.60;99.90;;;;;;5065571;28;20169;-66
2021/11/25 01:09:26;;;;;;;77.40;33.90;;;7.50;99.90;;;;;;5065678;28;20177;-65
2021/11/25 01:11:57;;;;;;;77.10;35.13;;;7.70;99.90;;;;;;5065662;28;20192;-65
2021/11/25 01:14:23;;;;;;;71.33;34.67;;;7.70;99.90;;;;;;5065454;28;20201;-66
2021/11/25 01:16:49;;;;;;;80.97;36.13;;;7.90;99.90;;;;;;5065548;28;20165;-65
2021/11/25 01:19:14;;;;;;;77.97;34.57;;;7.90;99.90;;;;;;5065505;28;20165;-65
2021/11/25 01:21:40;;;;;;;72.87;34.97;;;7.80;99.90;;;;;;5066672;28;20179;-66
2021/11/25 01:24:06;;;;;;;83.43;33.93;;;7.70;99.90;;;;;;5069061;28;20669;-65
2021/11/25 01:26:31;;;;;;;77.13;35.73;;;7.70;99.90;;;;;;5069173;28;20165;-66
2021/11/25 01:28:57;;;;;;;76.63;35.73;;;7.80;99.90;;;;;;5069184;28;20172;-65
2021/11/25 01:31:23;;;;;;;80.03;37.03;;;8.00;99.90;;;;;;5069042;28;20192;-65
2021/11/25 01:33:48;;;;;;;95.63;38.53;;;8.00;99.90;;;;;;5068631;28;20167;-65
2021/11/25 01:36:14;;;;;;;80.87;37.00;;;8.00;99.90;;;;;;5068526;28;20236;-66
2021/11/25 01:38:39;;;;;;;80.10;37.30;;;8.00;99.90;;;;;;5069008;28;20173;-65
2021/11/25 01:41:05;;;;;;;72.57;35.63;;;7.90;99.90;;;;;;5068886;28;20169;-65
2021/11/25 01:43:32;;;;;;;79.60;35.70;;;7.90;99.90;;;;;;5067537;28;20180;-65
2021/11/25 01:45:58;;;;;;;81.57;35.93;;;8.00;99.90;;;;;;5068541;28;20173;-65
2021/11/25 01:48:25;;;;;;;85.27;36.20;;;8.10;99.90;;;;;;5068963;28;20168;-65
2021/11/25 01:50:51;;;;;;;81.57;36.47;;;8.40;99.90;;;;;;5068338;28;20248;-65
2021/11/25 01:53:18;;;;;;;95.97;39.90;;;8.50;99.90;;;;;;5068989;28;20165;-65
2021/11/25 01:55:44;;;;;;;84.47;38.20;;;8.70;99.90;;;;;;5068377;28;20161;-65
2021/11/25 01:58:10;;;;;;;86.80;35.87;;;8.40;99.90;;;;;;5068718;28;20199;-66
2021/11/25 02:00:44;;;;;;;81.17;35.57;;;8.00;99.90;;;;;;5068511;28;20179;-65
2021/11/25 02:03:11;;;;;;;87.80;38.60;;;7.70;99.90;;;;;;5068759;28;20183;-66
2021/11/25 02:05:37;;;;;;;87.63;37.03;;;7.70;99.90;;;;;;5067794;28;20172;-65
2021/11/25 02:08:05;;;;;;;98.37;40.67;;;8.00;99.90;;;;;;5068396;28;20248;-65
2021/11/25 02:10:31;;;;;;;92.33;40.93;;;8.20;99.90;;;;;;5068272;28;20215;-65
2021/11/25 02:12:57;;;;;;;98.10;38.80;;;8.00;99.90;;;;;;5068520;28;20222;-65
2021/11/25 02:15:23;;;;;;;88.47;38.00;;;7.60;99.90;;;;;;5067745;28;20262;-65
2021/11/25 02:17:49;;;;;;;90.23;38.37;;;7.50;99.90;;;;;;5068219;28;20216;-65
2021/11/25 02:20:15;;;;;;;93.83;38.00;;;7.40;99.90;;;;;;5068028;28;20173;-65
2021/11/25 02:22:42;;;;;;;79.03;36.73;;;7.50;99.90;;;;;;5068342;28;20165;-65
2021/11/25 02:25:10;;;;;;;88.03;39.57;;;7.50;99.90;;;;;;5067971;28;20179;-65
2021/11/25 02:27:36;;;;;;;93.80;38.13;;;7.50;99.90;;;;;;5067951;28;20164;-65
2021/11/25 02:30:04;;;;;;;75.33;35.80;;;7.50;99.90;;;;;;5067800;28;20160;-65
2021/11/25 02:32:43;;;;;;;88.63;38.03;;;7.40;99.90;;;;;;5067623;28;20531;-65
2021/11/25 02:35:14;;;;;;;82.57;38.40;;;7.40;99.90;;;;;;5067313;28;20168;-65
2021/11/25 02:37:40;;;;;;;84.80;36.77;;;7.20;99.90;;;;;;5067598;28;20199;-65
2021/11/25 02:40:28;;;;;;;73.70;34.60;;;7.20;99.90;;;;;;5067849;28;20157;-65
2021/11/25 02:42:59;;;;;;;72.67;34.77;;;7.20;99.90;;;;;;5067975;28;20168;-65
2021/11/25 02:45:26;;;;;;;74.50;35.23;;;7.50;99.90;;;;;;5067397;28;20169;-65
2021/11/25 02:47:53;;;;;;;82.60;36.17;;;8.00;99.90;;;;;;5067600;28;20160;-66
2021/11/25 02:50:21;;;;;;;78.73;37.47;;;7.70;99.90;;;;;;5067438;28;20210;-65
2021/11/25 02:52:47;;;;;;;85.47;37.30;;;7.70;99.90;;;;;;5067766;28;20192;-65
2021/11/25 02:55:14;;;;;;;87.23;38.90;;;8.10;99.90;;;;;;5067514;28;20230;-65
2021/11/25 02:57:41;;;;;;;87.23;37.70;;;8.30;99.90;;;;;;5067575;28;20165;-65
2021/11/25 03:00:22;;;;;;;84.43;37.67;;;7.90;99.90;;;;;;5067282;28;20168;-65
2021/11/25 03:03:00;;;;;;;81.93;36.70;;;7.90;99.90;;;;;;5067471;28;20243;-65
2021/11/25 03:05:26;;;;;;;87.87;39.03;;;7.90;99.90;;;;;;5066606;28;20243;-65
2021/11/25 03:07:52;;;;;;;87.77;39.07;;;7.90;99.90;;;;;;5067351;28;20218;-66
2021/11/25 03:10:18;;;;;;;92.53;37.60;;;7.80;99.90;;;;;;5067259;28;20689;-65
2021/11/25 03:12:44;;;;;;;91.47;39.03;;;7.70;99.90;;;;;;5067271;28;20153;-65
2021/11/25 03:15:09;;;;;;;92.67;37.47;;;7.50;99.90;;;;;;5066724;28;20208;-65
2021/11/25 03:17:38;;;;;;;73.73;35.33;;;7.50;99.90;;;;;;5067097;28;20160;-66
2021/11/25 03:20:04;;;;;;;85.60;38.13;;;7.50;99.90;;;;;;5066841;28;20271;-65
2021/11/25 03:22:30;;;;;;;80.03;38.47;;;7.50;99.90;;;;;;5066960;28;20240;-65
2021/11/25 03:24:56;;;;;;;80.57;36.00;;;7.70;99.90;;;;;;5066828;28;20188;-65
2021/11/25 03:27:22;;;;;;;90.90;37.60;;;8.10;99.90;;;;;;5067001;28;20203;-65
2021/11/25 03:29:48;;;;;;;83.97;38.67;;;8.10;99.90;;;;;;5066805;28;20161;-65
2021/11/25 03:32:13;;;;;;;90.90;36.40;;;7.80;99.90;;;;;;5065729;28;20196;-65
2021/11/25 03:34:39;;;;;;;85.47;37.80;;;7.60;99.90;;;;;;5065063;28;20181;-65
2021/11/25 03:37:05;;;;;;;86.40;37.80;;;7.50;99.90;;;;;;5066719;28;20184;-65
2021/11/25 03:39:31;;;;;;;78.23;37.40;;;7.50;99.90;;;;;;5067005;28;20168;-65
2021/11/25 03:41:56;;;;;;;80.37;36.97;;;7.50;99.90;;;;;;5066618;28;20165;-65
2021/11/25 03:44:22;;;;;;;90.40;37.83;;;7.50;99.90;;;;;;5065933;28;20171;-65
2021/11/25 03:46:48;;;;;;;78.33;37.30;;;7.50;99.90;;;;;;5066594;28;20165;-65
2021/11/25 03:49:13;;;;;;;82.43;37.50;;;7.70;99.90;;;;;;5066127;28;20153;-65
2021/11/25 03:51:39;;;;;;;90.97;38.50;;;8.20;99.90;;;;;;5066635;28;20180;-65
2021/11/25 03:54:05;;;;;;;81.43;38.53;;;8.30;99.90;;;;;;5066331;28;20638;-65
2021/11/25 03:56:31;;;;;;;86.57;38.73;;;8.30;99.90;;;;;;5066461;28;20501;-66
2021/11/25 03:58:56;;;;;;;96.23;40.13;;;8.30;99.90;;;;;;5066562;28;20165;-65
2021/11/25 04:01:23;;;;;;;92.33;39.37;;;8.30;99.90;;;;;;5066237;28;20180;-65
2021/11/25 04:03:49;;;;;;;95.60;40.13;;;8.10;99.90;;;;;;5066430;28;20175;-65
2021/11/25 04:06:15;;;;;;;99.57;42.30;;;8.20;99.90;;;;;;5065692;28;20172;-65
2021/11/25 04:08:40;;;;;;;111.07;44.37;;;8.10;99.90;;;;;;5066596;28;20164;-65
2021/11/25 04:11:07;;;;;;;102.67;43.17;;;8.30;99.90;;;;;;5066123;28;20554;-65
2021/11/25 04:13:33;;;;;;;93.77;42.13;;;8.20;99.90;;;;;;5065082;28;20232;-65
2021/11/25 04:15:58;;;;;;;108.40;43.73;;;8.20;99.90;;;;;;5065686;28;20217;-65
2021/11/25 04:18:26;;;;;;;97.40;43.00;;;7.90;99.90;;;;;;5066444;28;20291;-65
2021/11/25 04:20:51;;;;;;;96.33;42.30;;;7.60;99.90;;;;;;5065876;28;20642;-65
2021/11/25 04:23:17;;;;;;;92.87;40.27;;;7.40;99.90;;;;;;5066492;28;20168;-65
2021/11/25 04:25:43;;;;;;;97.57;42.03;;;7.40;99.90;;;;;;5066119;28;20179;-65
2021/11/25 04:28:09;;;;;;;95.30;41.13;;;7.40;99.90;;;;;;5066192;28;20180;-65
2021/11/25 04:35:53;;;;;;;109.73;44.63;;;7.60;99.90;;;;;;5065643;28;20211;-65
2021/11/25 04:38:21;;;;;;;87.33;39.50;;;7.70;99.90;;;;;;5066033;28;20161;-65
2021/11/25 04:40:59;;;;;;;97.50;40.23;;;7.50;99.90;;;;;;5064688;28;20161;-65
2021/11/25 04:43:27;;;;;;;94.60;41.63;;;7.50;99.90;;;;;;5066175;28;20227;-65
2021/11/25 04:45:53;;;;;;;98.67;42.37;;;7.90;99.90;;;;;;5065722;28;20271;-65
2021/11/25 04:48:22;;;;;;;85.73;39.00;;;7.70;99.90;;;;;;5066079;28;20164;-65
2021/11/25 04:50:48;;;;;;;92.87;40.57;;;7.40;99.90;;;;;;5064327;28;20219;-65
2021/11/25 04:53:14;;;;;;;89.13;40.40;;;7.30;99.90;;;;;;5066009;28;20164;-66
2021/11/25 04:55:41;;;;;;;93.20;39.83;;;7.20;99.90;;;;;;5066731;28;20172;-65
2021/11/25 04:58:08;;;;;;;94.77;41.17;;;7.30;99.90;;;;;;5069965;28;20165;-66
2021/11/25 05:00:34;;;;;;;86.00;39.70;;;7.40;99.90;;;;;;5069569;28;20187;-65
2021/11/25 05:03:01;;;;;;;85.43;38.37;;;7.40;99.90;;;;;;5069620;28;20501;-65
2021/11/25 05:05:26;;;;;;;89.30;40.43;;;7.60;99.90;;;;;;5069029;28;20180;-65
2021/11/25 05:07:52;;;;;;;87.80;41.07;;;7.60;99.90;;;;;;5068444;28;20161;-65
2021/11/25 05:10:18;;;;;;;88.83;40.10;;;7.50;99.90;;;;;;5069290;28;20196;-65
2021/11/25 05:12:43;;;;;;;103.18;47.38;;;7.40;99.90;;;;;;5068357;28;20403;-65
2021/11/25 05:15:11;;;;;;;98.23;42.33;;;7.80;99.90;;;;;;5068989;28;20326;-66
2021/11/25 05:17:38;;;;;;;97.67;42.73;;;7.90;99.90;;;;;;5069347;28;20259;-65
2021/11/25 05:20:07;;;;;;;92.60;40.33;;;7.70;99.90;;;;;;5068981;28;20172;-65
2021/11/25 05:22:32;;;;;;;103.18;47.38;;;7.70;99.90;;;;;;5068524;28;20537;-66
2021/11/25 05:24:58;;;;;;;101.07;41.90;;;7.80;99.90;;;;;;5069063;28;20191;-66
2021/11/25 05:27:24;;;;;;;93.03;40.93;;;7.80;99.90;;;;;;5069157;28;20195;-65
2021/11/25 05:29:49;;;;;;;93.57;44.43;;;7.80;99.90;;;;;;5068347;28;20423;-65
2021/11/25 05:32:16;;;;;;;99.27;41.30;;;7.90;99.90;;;;;;5067738;28;20197;-65
2021/11/25 05:34:45;;;;;;;89.40;40.77;;;7.80;99.90;;;;;;5068607;28;20577;-66
2021/11/25 05:37:15;;;;;;;85.63;40.00;;;7.80;99.90;;;;;;5068911;28;20161;-65
2021/11/25 05:39:41;;;;;;;86.07;38.33;;;7.70;99.90;;;;;;5069310;28;20160;-65
2021/11/25 05:42:08;;;;;;;83.70;38.43;;;7.40;99.90;;;;;;5069052;28;20177;-65
2021/11/25 05:44:34;;;;;;;79.87;37.53;;;7.50;99.90;;;;;;5068865;28;20177;-66
2021/11/25 05:47:00;;;;;;;85.77;38.47;;;7.40;99.90;;;;;;5068592;28;20169;-65
2021/11/25 05:49:26;;;;;;;88.10;39.90;;;7.60;99.90;;;;;;5068318;28;20191;-65
2021/11/25 05:51:51;;;;;;;80.07;39.47;;;7.70;99.90;;;;;;5068731;28;20173;-65
2021/11/25 05:54:17;;;;;;;83.60;39.87;;;7.80;99.90;;;;;;5068486;28;20189;-65
2021/11/25 05:56:43;;;;;;;83.67;40.80;;;7.80;99.90;;;;;;5068164;28;20495;-65
2021/11/25 05:59:09;;;;;;;92.60;43.80;;;7.70;99.90;;;;;;5067565;28;20456;-65
2021/11/25 06:01:35;;;;;;;85.83;38.97;;;8.10;99.90;;;;;;5068311;28;20181;-65
2021/11/25 06:04:00;;;;;;;89.37;39.20;;;7.80;99.90;;;;;;5068638;28;20169;-65
2021/11/25 06:06:26;;;;;;;94.23;44.07;;;7.70;99.90;;;;;;5066730;28;20506;-65
2021/11/25 06:08:52;;;;;;;97.00;39.70;;;7.90;99.90;;;;;;5067502;28;20223;-65
2021/11/25 06:11:18;;;;;;;86.30;39.73;;;8.30;99.90;;;;;;5067663;28;20234;-65
2021/11/25 06:13:44;;;;;;;93.20;40.20;;;8.20;99.90;;;;;;5066685;28;20680;-65
2021/11/25 06:16:10;;;;;;;90.53;40.63;;;7.80;99.90;;;;;;5067224;28;20226;-65
2021/11/25 06:18:35;;;;;;;89.50;39.80;;;7.70;99.90;;;;;;5067972;28;20165;-65
2021/11/25 06:21:01;;;;;;;85.23;39.13;;;7.40;99.90;;;;;;5067601;28;20239;-65
2021/11/25 06:23:27;;;;;;;84.33;39.63;;;7.10;99.90;;;;;;5067968;28;20665;-66
2021/11/25 06:25:53;;;;;;;85.97;38.80;;;6.90;99.90;;;;;;5067445;28;20206;-65
2021/11/25 06:28:19;;;;;;;87.33;39.53;;;6.80;99.90;;;;;;5068016;28;20206;-65
2021/11/25 06:30:45;;;;;;;90.03;40.33;;;6.90;99.90;;;;;;5067712;28;20839;-65
2021/11/25 06:33:10;;;;;;;91.47;41.67;;;6.80;99.90;;;;;;5067876;28;20167;-65
2021/11/25 06:35:36;;;;;;;95.37;40.13;;;7.00;99.90;;;;;;5067439;28;20236;-65
2021/11/25 06:38:02;;;;;;;87.93;40.63;;;7.10;99.90;;;;;;5067782;28;20573;-65
2021/11/25 06:40:30;;;;;;;89.27;40.90;;;7.10;99.90;;;;;;5067321;28;20575;-65
2021/11/25 06:42:58;;;;;;;88.57;39.80;;;7.20;99.90;;;;;;5067684;28;20165;-65
2021/11/25 06:45:24;;;;;;;95.63;41.47;;;7.20;99.90;;;;;;5067106;28;20173;-65
2021/11/25 06:47:50;;;;;;;97.00;44.53;;;7.10;99.90;;;;;;5066864;28;20436;-65
2021/11/25 06:50:18;;;;;;;98.00;42.33;;;7.20;99.90;;;;;;5066489;28;20189;-65
2021/11/25 06:52:44;;;;;;;95.57;40.37;;;7.40;99.90;;;;;;5067314;28;20247;-65
2021/11/25 06:55:10;;;;;;;85.10;39.90;;;7.10;99.90;;;;;;5065981;28;20164;-65
2021/11/25 06:57:37;;;;;;;89.20;39.73;;;7.20;99.90;;;;;;5067257;28;20195;-65
2021/11/25 07:00:14;;;;;;;88.30;41.40;;;7.20;99.90;;;;;;5067377;28;20183;-65
2021/11/25 07:02:39;;;;;;;94.67;42.53;;;7.20;99.90;;;;;;5067505;28;20210;-65
2021/11/25 07:05:06;;;;;;;96.13;43.33;;;7.50;99.90;;;;;;5066645;28;20180;-65
2021/11/25 07:07:32;;;;;;;102.40;45.00;;;7.60;99.90;;;;;;5067028;28;20169;-65
2021/11/25 07:09:58;;;;;;;99.97;43.37;;;7.60;99.90;;;;;;5066857;28;20165;-65
2021/11/25 07:12:24;;;;;;;90.57;41.63;;;7.50;99.90;;;;;;5067244;28;20195;-65
2021/11/25 07:14:50;;;;;;;87.03;39.80;;;7.30;99.90;;;;;;5066256;28;20209;-64
2021/11/25 07:17:15;;;;;;;89.37;41.27;;;7.20;99.90;;;;;;5066582;28;20157;-65
2021/11/25 07:19:42;;;;;;;93.77;41.33;;;7.20;99.90;;;;;;5065352;28;20165;-65
2021/11/25 07:22:08;;;;;;;92.57;41.83;;;7.60;99.90;;;;;;5066778;28;20168;-65
2021/11/25 07:24:33;;;;;;;96.83;42.87;;;7.50;99.90;;;;;;5066730;28;20168;-65
2021/11/25 07:26:59;;;;;;;92.63;40.93;;;7.50;99.90;;;;;;5066692;28;20186;-65
2021/11/25 07:29:25;;;;;;;100.37;44.60;;;7.30;99.90;;;;;;5066746;28;20181;-67
2021/11/25 07:31:51;;;;;;;90.03;43.07;;;7.30;99.90;;;;;;5066318;28;20214;-65
2021/11/25 07:34:17;;;;;;;88.30;42.60;;;7.30;99.90;;;;;;5066332;28;20165;-65
2021/11/25 07:36:42;;;;;;;87.83;41.77;;;7.20;99.90;;;;;;5065790;28;20195;-65
2021/11/25 07:39:08;;;;;;;97.97;45.43;;;7.40;99.90;;;;;;5066709;28;20197;-65
2021/11/25 07:41:38;;;;;;;103.20;43.97;;;7.40;99.90;;;;;;5066387;28;20169;-65
2021/11/25 07:44:04;;;;;;;96.73;44.33;;;7.50;99.90;;;;;;5066754;28;20626;-65
2021/11/25 07:46:30;;;;;;;105.87;48.03;;;7.40;99.90;;;;;;5066062;28;20169;-62
2021/11/25 07:48:55;;;;;;;96.10;44.90;;;7.60;99.90;;;;;;5065525;28;20161;-62
2021/11/25 07:51:21;;;;;;;94.07;41.20;;;7.40;99.90;;;;;;5065806;28;20306;-62
2021/11/25 07:53:48;;;;;;;92.37;42.70;;;7.30;99.90;;;;;;5066352;28;20160;-62
2021/11/25 07:56:13;;;;;;;93.40;41.90;;;7.40;99.90;;;;;;5064525;28;20179;-62
2021/11/25 07:58:39;;;;;;;98.03;44.43;;;7.40;99.90;;;;;;5066247;28;20160;-62
2021/11/25 08:01:05;;;;;;;90.43;42.00;;;7.30;99.90;;;;;;5064777;28;20240;-62
2021/11/25 08:03:30;;;;;;;88.57;41.57;;;7.50;99.90;;;;;;5066124;28;20172;-62
2021/11/25 08:05:56;;;;;;;86.73;41.10;;;7.40;99.90;;;;;;5065836;28;20187;-62
2021/11/25 08:08:22;;;;;;;91.27;41.67;;;7.40;99.90;;;;;;5066007;28;20175;-62
2021/11/25 08:10:47;;;;;;;90.87;42.53;;;7.30;99.90;;;;;;5065715;28;20273;-62
2021/11/25 08:13:13;;;;;;;87.00;41.53;;;7.70;99.90;;;;;;5065752;28;20188;-62
2021/11/25 08:15:39;;;;;;;90.15;45.38;;;7.40;99.90;;;;;;5064581;28;20431;-62
2021/11/25 08:18:05;;;;;;;87.90;41.27;;;7.40;99.90;;;;;;5065801;28;20160;-62
2021/11/25 08:20:31;;;;;;;86.83;40.83;;;7.50;99.90;;;;;;5065600;28;20169;-62
2021/11/25 08:22:58;;;;;;;88.90;41.97;;;7.30;99.90;;;;;;5065902;28;20172;-62
2021/11/25 08:25:24;;;;;;;92.73;41.73;;;7.40;99.90;;;;;;5065730;28;20164;-62
2021/11/25 08:27:54;;;;;;;89.63;42.10;;;7.40;99.90;;;;;;5065944;28;20164;-62
2021/11/25 08:30:21;;;;;;;84.87;42.00;;;7.40;99.90;;;;;;5066581;28;20239;-62
2021/11/25 08:32:47;;;;;;;85.70;39.90;;;7.40;99.90;;;;;;5069654;28;20649;-62
2021/11/25 08:35:13;;;;;;;88.53;40.47;;;7.30;99.90;;;;;;5069417;28;20404;-62
2021/11/25 08:37:40;;;;;;;86.57;40.60;;;7.40;99.90;;;;;;5069497;28;20164;-62
2021/11/25 08:40:06;;;;;;;84.50;41.23;;;7.50;99.90;;;;;;5069709;28;20236;-62
2021/11/25 08:42:32;;;;;;;81.63;40.13;;;7.50;99.90;;;;;;5069520;28;20160;-62
2021/11/25 08:44:58;;;;;;;80.23;40.53;;;7.40;99.90;;;;;;5069335;28;20224;-62
2021/11/25 08:47:23;;;;;;;81.67;38.27;;;7.40;99.90;;;;;;5069462;28;20165;-63
2021/11/25 08:49:51;;;;;;;86.67;40.40;;;7.40;99.90;;;;;;5069314;28;20176;-62
2021/11/25 08:52:17;;;;;;;76.57;38.07;;;7.40;99.90;;;;;;5069556;28;20367;-62
2021/11/25 08:54:43;;;;;;;83.07;39.73;;;7.50;99.90;;;;;;5069018;28;20168;-62
2021/11/25 08:57:08;;;;;;;80.13;39.07;;;7.50;99.90;;;;;;5069061;28;20165;-62
2021/11/25 08:59:34;;;;;;;83.33;39.10;;;7.70;99.90;;;;;;5069438;28;20176;-62
2021/11/25 09:02:00;;;;;;;84.70;40.57;;;7.70;99.90;;;;;;5069326;28;20192;-62
2021/11/25 09:04:27;;;;;;;92.73;44.67;;;8.00;99.90;;;;;;5069025;28;20592;-62
2021/11/25 09:06:54;;;;;;;83.40;39.37;;;8.10;99.90;;;;;;5069348;28;20183;-62
2021/11/25 09:09:20;;;;;;;80.80;39.03;;;7.90;99.90;;;;;;5067990;28;20168;-62
2021/11/25 09:11:46;;;;;;;89.57;40.47;;;7.70;99.90;;;;;;5069050;28;20196;-62
2021/11/25 09:14:12;;;;;;;77.27;38.87;;;7.60;99.90;;;;;;5069123;28;20217;-62
2021/11/25 09:16:38;;;;;;;77.97;39.43;;;7.60;99.90;;;;;;5069104;28;20622;-63
2021/11/25 09:19:04;;;;;;;79.20;34.87;;;7.70;99.90;;;;;;5069044;28;20188;-62
2021/11/25 09:21:30;;;;;;;79.50;38.63;;;7.70;99.90;;;;;;5068664;28;20248;-62
2021/11/25 09:23:58;;;;;;;75.23;38.67;;;7.90;99.90;;;;;;5069267;28;20160;-62
2021/11/25 09:26:23;;;;;;;72.57;37.37;;;8.00;99.90;;;;;;5068751;28;20180;-62
2021/11/25 09:28:57;;;;;;;74.27;37.23;;;8.10;99.90;;;;;;5069145;28;20208;-63
2021/11/25 09:31:24;;;;;;;69.53;35.93;;;8.40;99.90;;;;;;5068629;28;20199;-66
2021/11/25 09:33:50;;;;;;;76.87;36.57;;;8.30;99.90;;;;;;5067675;28;20168;-62
2021/11/25 09:36:15;;;;;;;78.83;35.17;;;8.10;99.90;;;;;;5068420;28;20578;-62
2021/11/25 09:38:41;;;;;;;72.13;35.13;;;8.00;99.90;;;;;;5068843;28;20224;-62
2021/11/25 09:41:07;;;;;;;71.83;36.13;;;8.10;99.90;;;;;;5068790;28;20181;-62
2021/11/25 09:43:32;;;;;;;72.47;35.83;;;8.20;99.90;;;;;;5067805;28;20530;-62
2021/11/25 09:45:58;;;;;;;81.30;37.53;;;8.30;99.90;;;;;;5068393;28;20191;-62
2021/11/25 09:48:26;;;;;;;70.40;35.87;;;8.30;99.90;;;;;;5068469;28;20196;-62
2021/11/25 09:50:55;;;;;;;66.50;35.20;;;8.30;99.90;;;;;;5068094;28;20189;-62
2021/11/25 09:53:23;;;;;;;76.03;35.30;;;8.40;99.90;;;;;;5067226;28;20161;-62
2021/11/25 09:55:52;;;;;;;72.00;35.07;;;8.60;99.90;;;;;;5068104;28;20173;-63
2021/11/25 09:58:21;;;;;;;62.03;33.27;;;8.80;99.90;;;;;;5068443;28;20171;-62
2021/11/25 10:00:51;;;;;;;78.33;37.87;;;8.80;99.90;;;;;;5068565;28;20172;-62
2021/11/25 10:03:18;;;;;;;69.37;35.00;;;8.80;99.90;;;;;;5068212;28;20168;-62
2021/11/25 10:05:51;;;;;;;69.73;35.70;;;8.70;99.90;;;;;;5067779;28;20173;-62
2021/11/25 10:08:27;;;;;;;75.20;37.00;;;8.80;99.90;;;;;;5068316;28;20184;-62
2021/11/25 10:11:08;;;;;;;71.83;35.53;;;9.10;99.90;;;;;;5068077;28;20208;-62
2021/11/25 10:13:39;;;;;;;69.07;35.23;;;9.00;99.90;;;;;;5068220;28;20202;-62
2021/11/25 10:16:08;;;;;;;66.13;34.20;;;9.00;99.90;;;;;;5067841;28;20211;-62
2021/11/25 10:18:36;;;;;;;71.07;35.53;;;8.90;99.90;;;;;;5068111;28;20524;-62
2021/11/25 10:21:24;;;;;;;69.60;34.23;;;9.00;99.90;;;;;;5067674;28;20173;-62
2021/11/25 10:23:52;;;;;;;65.50;34.57;;;9.30;99.90;;;;;;5068047;28;20192;-62
2021/11/25 10:26:27;;;;;;;69.77;33.67;;;9.40;99.90;;;;;;5067634;28;20187;-62
2021/11/25 10:29:11;;;;;;;65.53;32.37;;;9.50;99.90;;;;;;5068003;28;20227;-61
2021/11/25 10:31:42;;;;;;;65.20;32.97;;;9.50;99.90;;;;;;5067545;28;20235;-62
2021/11/25 10:34:16;;;;;;;65.13;32.67;;;9.30;99.90;;;;;;5066459;28;20169;-62
2021/11/25 10:39:49;;;;;;;61.93;31.10;;;9.30;99.90;;;;;;5067296;28;20161;-62
2021/11/25 10:42:29;;;;;;;68.97;32.80;;;9.30;99.90;;;;;;5067289;28;20179;-62
2021/11/25 10:44:55;;;;;;;63.37;33.53;;;9.30;99.90;;;;;;5067454;28;20187;-62
2021/11/25 10:47:23;;;;;;;69.17;32.73;;;9.30;99.90;;;;;;5067084;28;20153;-62
2021/11/25 10:50:00;;;;;;;66.33;32.43;;;9.30;99.90;;;;;;5066997;28;20167;-62
2021/11/25 10:52:41;;;;;;;66.80;31.90;;;9.20;99.90;;;;;;5067359;28;20200;-62
2021/11/25 10:55:14;;;;;;;65.00;31.57;;;9.10;99.90;;;;;;5067078;28;20166;-62
2021/11/25 10:57:49;;;;;;;59.60;31.87;;;9.00;99.90;;;;;;5067374;28;20535;-61
2021/11/25 11:00:25;;;;;;;68.57;34.67;;;8.80;99.90;;;;;;5067218;28;20644;-62
2021/11/25 11:03:14;;;;;;;77.30;40.10;;;8.70;99.90;;;;;;5065497;28;20418;-62
2021/11/25 11:05:58;;;;;;;69.60;35.50;;;8.80;99.90;;;;;;5065290;28;20173;-62
2021/11/25 11:08:39;;;;;;;68.07;34.97;;;8.70;99.90;;;;;;5066704;28;20161;-62
2021/11/25 11:11:07;;;;;;;71.33;35.83;;;8.80;99.90;;;;;;5066966;28;20572;-62
2021/11/25 11:13:48;;;;;;;70.07;35.03;;;8.70;99.90;;;;;;5066858;28;20161;-62
2021/11/25 11:18:57;;;;;;;63.43;32.83;;;8.80;99.90;;;;;;5066973;28;20629;-62
2021/11/25 11:21:40;;;;;;;66.03;32.73;;;8.70;99.90;;;;;;5066684;28;20172;-62
2021/11/25 11:24:19;;;;;;;63.90;35.03;;;8.80;99.90;;;;;;5066592;28;20427;-64
2021/11/25 11:26:48;;;;;;;54.30;28.73;;;8.80;99.90;;;;;;5065939;28;20230;-62
2021/11/25 11:29:18;;;;;;;61.87;29.70;;;8.70;99.90;;;;;;5066177;28;20633;-62
2021/11/25 11:31:48;;;;;;;56.50;30.20;;;8.60;99.90;;;;;;5066188;28;20669;-62
2021/11/25 11:34:16;;;;;;;53.50;28.90;;;8.40;99.90;;;;;;5066421;28;20177;-61
2021/11/25 11:36:48;;;;;;;57.10;30.30;;;8.30;99.90;;;;;;5065940;28;20176;-62
2021/11/25 11:39:17;;;;;;;58.60;30.10;;;8.20;99.90;;;;;;5066398;28;20149;-62
2021/11/25 11:41:46;;;;;;;55.40;30.03;;;8.30;99.90;;;;;;5066092;28;20175;-62
2021/11/25 11:44:12;;;;;;;68.53;30.67;;;8.40;99.90;;;;;;5065662;28;20165;-62
2021/11/25 11:46:41;;;;;;;58.23;29.97;;;8.40;99.90;;;;;;5065585;28;20164;-62
2021/11/25 11:49:08;;;;;;;54.03;28.03;;;8.50;99.90;;;;;;5066029;28;20176;-62
2021/11/25 11:51:35;;;;;;;52.07;29.47;;;8.50;99.90;;;;;;5065397;28;20214;-62
2021/11/25 11:54:02;;;;;;;53.17;28.23;;;8.60;99.90;;;;;;5066104;28;20177;-62
2021/11/25 11:56:42;;;;;;;48.90;26.10;;;8.70;99.90;;;;;;5065985;28;20244;-62
2021/11/25 11:59:10;;;;;;;53.10;26.57;;;8.80;99.90;;;;;;5066139;28;20623;-62
2021/11/25 12:01:37;;;;;;;50.50;26.30;;;9.00;99.90;;;;;;5065766;28;20175;-62
2021/11/25 12:04:03;;;;;;;45.50;24.43;;;9.10;99.90;;;;;;5064628;28;20599;-62
2021/11/25 12:06:48;;;;;;;42.83;23.97;;;9.00;99.90;;;;;;5064497;28;20177;-62
2021/11/25 12:09:19;;;;;;;48.77;24.27;;;9.20;99.90;;;;;;5065870;28;20156;-62
2021/11/25 12:11:51;;;;;;;40.33;22.63;;;9.20;99.90;;;;;;5065864;28;20192;-62
2021/11/25 12:14:46;;;;;;;46.60;22.77;;;9.30;99.90;;;;;;5066048;28;20212;-62
2021/11/25 12:17:22;;;;;;;36.57;20.97;;;9.50;99.90;;;;;;5065568;28;20180;-62
2021/11/25 12:19:48;;;;;;;50.73;22.17;;;9.50;99.90;;;;;;5065422;28;20645;-62
2021/11/25 12:22:13;;;;;;;36.00;20.47;;;9.50;99.90;;;;;;5065902;28;20164;-62
2021/11/25 12:24:48;;;;;;;34.80;20.37;;;9.50;99.90;;;;;;5065698;28;20165;-62
2021/11/25 12:27:31;;;;;;;35.10;18.17;;;9.80;99.90;;;;;;5065608;28;20168;-62
2021/11/25 12:30:01;;;;;;;31.23;18.13;;;9.80;99.90;;;;;;5065791;28;20207;-62
2021/11/25 12:35:17;;;;;;;35.07;18.33;;;9.60;99.90;;;;;;5065552;28;20180;-62
2021/11/25 12:37:49;;;;;;;35.90;20.27;;;9.60;99.90;;;;;;5063941;28;20176;-62
2021/11/25 12:40:18;;;;;;;35.30;19.73;;;9.70;99.90;;;;;;5065825;28;20164;-62
2021/11/25 12:43:09;;;;;;;36.73;20.03;;;9.60;99.90;;;;;;5065358;28;20168;-62
2021/11/25 12:46:04;;;;;;;31.27;18.67;;;9.80;99.90;;;;;;5065526;28;20195;-62
2021/11/25 12:48:42;;;;;;;35.53;19.00;;;9.80;99.90;;;;;;5065221;28;20165;-62
2021/11/25 12:51:19;;;;;;;34.93;17.73;;;9.90;99.90;;;;;;5065048;28;20192;-62
2021/11/25 12:53:52;;;;;;;36.00;17.42;;;10.00;99.90;;;;;;5065710;28;20152;-62